Terminal Aerodrome Forecast
Issued by NWS

Home | Current Version | Previous Version | Text Only | Print | Product List | Glossary On
Versions: 1 2 3 4 5 6 7 8 9 10 11 12 13
000
FTUS42 KMLB 222300
TAFISM
TAF
KISM 222340Z 2300/2324 16003KT P6SM FEW040 SCT060 BKN250
     FM230400 17004KT 3SM BR OVC003
     FM231500 17008KT P6SM SCT008 BKN020 BKN250
     FM231600 18010KT P6SM SCT030 SCT080 BKN250
      AMD NOT SKED 2303/2312=

USA.gov is the U.S. government's official web portal to all federal, state and local government web resources and services.